sensor_id;sensor_type;location;lat;lon;timestamp;temperature;humidity
49901;DHT22;35789;48.414;12.768;2022-08-30T00:00:00;15.0;99.9
49901;DHT22;35789;48.414;12.768;2022-08-30T00:05:00;15.0;99.9
49901;DHT22;35789;48.414;12.768;2022-08-30T00:10:00;14.9;99.9
49901;DHT22;35789;48.414;12.768;2022-08-30T00:15:00;14.8;99.9
49901;DHT22;35789;48.414;12.768;2022-08-30T00:20:00;14.8;99.9
49901;DHT22;35789;48.414;12.768;2022-08-30T00:25:00;14.7;99.9
49901;DHT22;35789;48.414;12.768;2022-08-30T00:30:00;14.8;99.9
49901;DHT22;35789;48.414;12.768;2022-08-30T00:35:00;14.7;99.9
49901;DHT22;35789;48.414;12.768;2022-08-30T00:40:00;14.7;99.9
49901;DHT22;35789;48.414;12.768;2022-08-30T00:45:00;14.6;99.9
49901;DHT22;35789;48.414;12.768;2022-08-30T00:50:00;14.6;99.9
49901;DHT22;35789;48.414;12.768;2022-08-30T00:55:00;14.6;99.9
49901;DHT22;35789;48.414;12.768;2022-08-30T01:00:00;14.6;99.9
49901;DHT22;35789;48.414;12.768;2022-08-30T01:05:00;14.6;99.9
49901;DHT22;35789;48.414;12.768;2022-08-30T01:10:00;14.5;99.9
49901;DHT22;35789;48.414;12.768;2022-08-30T01:15:00;14.4;99.9
49901;DHT22;35789;48.414;12.768;2022-08-30T01:20:00;14.3;99.9
49901;DHT22;35789;48.414;12.768;2022-08-30T01:25:00;14.2;99.9
49901;DHT22;35789;48.414;12.768;2022-08-30T01:30:00;14.2;99.9
49901;DHT22;35789;48.414;12.768;2022-08-30T01:35:00;14.3;99.9
49901;DHT22;35789;48.414;12.768;2022-08-30T01:40:00;14.3;99.9
49901;DHT22;35789;48.414;12.768;2022-08-30T01:45:00;14.3;99.9
49901;DHT22;35789;48.414;12.768;2022-08-30T01:50:00;14.1;99.9
49901;DHT22;35789;48.414;12.768;2022-08-30T01:55:00;14.1;99.9
49901;DHT22;35789;48.414;12.768;2022-08-30T02:00:00;14.0;99.9
49901;DHT22;35789;48.414;12.768;2022-08-30T02:05:00;14.1;99.9
49901;DHT22;35789;48.414;12.768;2022-08-30T02:10:00;14.0;99.9
49901;DHT22;35789;48.414;12.768;2022-08-30T02:15:00;14.1;99.9
49901;DHT22;35789;48.414;12.768;2022-08-30T02:20:00;14.0;99.9
49901;DHT22;35789;48.414;12.768;2022-08-30T02:25:00;14.0;99.9
49901;DHT22;35789;48.414;12.768;2022-08-30T02:30:00;14.0;99.9
49901;DHT22;35789;48.414;12.768;2022-08-30T02:35:00;13.8;99.9
49901;DHT22;35789;48.414;12.768;2022-08-30T02:40:00;13.7;99.9
49901;DHT22;35789;48.414;12.768;2022-08-30T02:45:00;13.6;99.9
49901;DHT22;35789;48.414;12.768;2022-08-30T02:50:01;13.8;99.9
49901;DHT22;35789;48.414;12.768;2022-08-30T02:55:00;13.9;99.9
49901;DHT22;35789;48.414;12.768;2022-08-30T03:00:00;13.7;99.9
49901;DHT22;35789;48.414;12.768;2022-08-30T03:05:00;13.9;99.9
49901;DHT22;35789;48.414;12.768;2022-08-30T03:10:00;13.8;99.9
49901;DHT22;35789;48.414;12.768;2022-08-30T03:15:00;13.7;99.9
49901;DHT22;35789;48.414;12.768;2022-08-30T03:20:00;13.8;99.9
49901;DHT22;35789;48.414;12.768;2022-08-30T03:25:00;13.7;99.9
49901;DHT22;35789;48.414;12.768;2022-08-30T03:30:00;13.7;99.9
49901;DHT22;35789;48.414;12.768;2022-08-30T03:35:00;13.5;99.9
49901;DHT22;35789;48.414;12.768;2022-08-30T03:40:00;13.5;99.9
49901;DHT22;35789;48.414;12.768;2022-08-30T03:45:00;13.5;99.9
49901;DHT22;35789;48.414;12.768;2022-08-30T03:50:00;13.5;99.9
49901;DHT22;35789;48.414;12.768;2022-08-30T03:55:00;13.5;99.9
49901;DHT22;35789;48.414;12.768;2022-08-30T04:00:00;13.5;99.9
49901;DHT22;35789;48.414;12.768;2022-08-30T04:05:00;13.4;99.9
49901;DHT22;35789;48.414;12.768;2022-08-30T04:10:00;13.4;99.9
49901;DHT22;35789;48.414;12.768;2022-08-30T04:15:00;13.4;99.9
49901;DHT22;35789;48.414;12.768;2022-08-30T04:20:00;13.4;99.9
49901;DHT22;35789;48.414;12.768;2022-08-30T04:25:00;13.4;99.9
49901;DHT22;35789;48.414;12.768;2022-08-30T04:30:00;13.5;99.9
49901;DHT22;35789;48.414;12.768;2022-08-30T04:35:00;13.5;99.9
49901;DHT22;35789;48.414;12.768;2022-08-30T04:40:00;13.5;99.9
49901;DHT22;35789;48.414;12.768;2022-08-30T04:45:00;13.5;99.9
49901;DHT22;35789;48.414;12.768;2022-08-30T04:50:00;13.3;99.9
49901;DHT22;35789;48.414;12.768;2022-08-30T04:55:00;13.3;99.9
49901;DHT22;35789;48.414;12.768;2022-08-30T05:00:00;13.3;99.9
49901;DHT22;35789;48.414;12.768;2022-08-30T05:05:00;13.3;99.9
49901;DHT22;35789;48.414;12.768;2022-08-30T05:10:00;13.3;99.9
49901;DHT22;35789;48.414;12.768;2022-08-30T05:15:00;13.3;99.9
49901;DHT22;35789;48.414;12.768;2022-08-30T05:20:00;13.3;99.9
49901;DHT22;35789;48.414;12.768;2022-08-30T05:25:00;13.4;99.9
49901;DHT22;35789;48.414;12.768;2022-08-30T05:30:00;13.4;99.9
49901;DHT22;35789;48.414;12.768;2022-08-30T05:35:00;13.5;99.9
49901;DHT22;35789;48.414;12.768;2022-08-30T05:40:00;13.5;99.9
49901;DHT22;35789;48.414;12.768;2022-08-30T05:45:00;13.6;99.9
49901;DHT22;35789;48.414;12.768;2022-08-30T05:50:00;13.7;99.9
49901;DHT22;35789;48.414;12.768;2022-08-30T05:55:00;13.9;99.9
49901;DHT22;35789;48.414;12.768;2022-08-30T06:00:00;13.9;99.9
49901;DHT22;35789;48.414;12.768;2022-08-30T06:05:00;14.1;99.9
49901;DHT22;35789;48.414;12.768;2022-08-30T06:10:00;14.1;99.9
49901;DHT22;35789;48.414;12.768;2022-08-30T06:15:00;14.3;99.9
49901;DHT22;35789;48.414;12.768;2022-08-30T06:20:00;14.4;99.9
49901;DHT22;35789;48.414;12.768;2022-08-30T06:25:00;14.5;99.9
49901;DHT22;35789;48.414;12.768;2022-08-30T06:30:00;14.6;99.9
49901;DHT22;35789;48.414;12.768;2022-08-30T06:35:00;14.8;99.9
49901;DHT22;35789;48.414;12.768;2022-08-30T06:40:00;15.0;99.9
49901;DHT22;35789;48.414;12.768;2022-08-30T06:45:00;15.1;99.9
49901;DHT22;35789;48.414;12.768;2022-08-30T06:50:00;15.3;99.9
49901;DHT22;35789;48.414;12.768;2022-08-30T06:55:00;15.4;99.9
49901;DHT22;35789;48.414;12.768;2022-08-30T07:00:00;15.7;99.9
49901;DHT22;35789;48.414;12.768;2022-08-30T07:05:00;15.9;99.9
49901;DHT22;35789;48.414;12.768;2022-08-30T07:10:00;15.9;99.9
49901;DHT22;35789;48.414;12.768;2022-08-30T07:15:00;16.2;99.9
49901;DHT22;35789;48.414;12.768;2022-08-30T07:20:00;16.2;99.9
49901;DHT22;35789;48.414;12.768;2022-08-30T07:25:00;16.3;99.9
49901;DHT22;35789;48.414;12.768;2022-08-30T07:30:00;16.4;99.9
49901;DHT22;35789;48.414;12.768;2022-08-30T07:35:00;16.5;99.9
49901;DHT22;35789;48.414;12.768;2022-08-30T07:40:00;16.5;99.9
49901;DHT22;35789;48.414;12.768;2022-08-30T07:45:00;16.7;99.9
49901;DHT22;35789;48.414;12.768;2022-08-30T07:50:00;16.7;99.9
49901;DHT22;35789;48.414;12.768;2022-08-30T07:55:00;17.0;99.9
49901;DHT22;35789;48.414;12.768;2022-08-30T08:00:00;17.1;99.9
49901;DHT22;35789;48.414;12.768;2022-08-30T08:05:00;17.5;99.9
49901;DHT22;35789;48.414;12.768;2022-08-30T08:10:00;17.6;99.9
49901;DHT22;35789;48.414;12.768;2022-08-30T08:15:00;17.7;99.9
49901;DHT22;35789;48.414;12.768;2022-08-30T08:20:00;18.1;99.9
49901;DHT22;35789;48.414;12.768;2022-08-30T08:25:00;18.1;99.9
49901;DHT22;35789;48.414;12.768;2022-08-30T08:30:00;18.1;99.9
49901;DHT22;35789;48.414;12.768;2022-08-30T08:35:00;18.1;99.9
49901;DHT22;35789;48.414;12.768;2022-08-30T08:40:00;18.5;99.9
49901;DHT22;35789;48.414;12.768;2022-08-30T08:45:02;18.6;99.9
49901;DHT22;35789;48.414;12.768;2022-08-30T08:50:01;18.6;99.9
49901;DHT22;35789;48.414;12.768;2022-08-30T08:55:01;18.7;99.9
49901;DHT22;35789;48.414;12.768;2022-08-30T09:00:00;18.7;99.9
49901;DHT22;35789;48.414;12.768;2022-08-30T09:05:00;19.0;99.9
49901;DHT22;35789;48.414;12.768;2022-08-30T09:10:00;19.3;99.9
49901;DHT22;35789;48.414;12.768;2022-08-30T09:15:00;19.2;99.9
49901;DHT22;35789;48.414;12.768;2022-08-30T09:20:00;19.5;99.9
49901;DHT22;35789;48.414;12.768;2022-08-30T09:25:00;19.5;99.9
49901;DHT22;35789;48.414;12.768;2022-08-30T09:30:02;19.8;99.9
49901;DHT22;35789;48.414;12.768;2022-08-30T09:35:00;19.6;99.9
49901;DHT22;35789;48.414;12.768;2022-08-30T09:40:00;19.9;99.9
49901;DHT22;35789;48.414;12.768;2022-08-30T09:45:00;19.9;99.9
49901;DHT22;35789;48.414;12.768;2022-08-30T09:50:01;19.9;99.9
49901;DHT22;35789;48.414;12.768;2022-08-30T09:55:02;20.6;99.9
49901;DHT22;35789;48.414;12.768;2022-08-30T10:00:03;20.7;99.9
49901;DHT22;35789;48.414;12.768;2022-08-30T10:05:02;20.8;99.9
49901;DHT22;35789;48.414;12.768;2022-08-30T10:10:02;20.8;99.9
49901;DHT22;35789;48.414;12.768;2022-08-30T10:15:02;21.3;99.9
49901;DHT22;35789;48.414;12.768;2022-08-30T10:20:02;21.2;99.9
49901;DHT22;35789;48.414;12.768;2022-08-30T10:25:01;21.0;99.9
49901;DHT22;35789;48.414;12.768;2022-08-30T10:30:00;21.6;99.9
49901;DHT22;35789;48.414;12.768;2022-08-30T10:35:01;21.7;99.9
49901;DHT22;35789;48.414;12.768;2022-08-30T10:40:02;21.5;99.9
49901;DHT22;35789;48.414;12.768;2022-08-30T10:45:00;21.4;99.9
49901;DHT22;35789;48.414;12.768;2022-08-30T10:50:03;21.8;99.9
49901;DHT22;35789;48.414;12.768;2022-08-30T10:55:01;21.8;99.9
49901;DHT22;35789;48.414;12.768;2022-08-30T11:00:01;21.9;99.9
49901;DHT22;35789;48.414;12.768;2022-08-30T11:05:04;22.0;99.9
49901;DHT22;35789;48.414;12.768;2022-08-30T11:10:03;22.2;99.9
49901;DHT22;35789;48.414;12.768;2022-08-30T11:15:01;22.6;99.9
49901;DHT22;35789;48.414;12.768;2022-08-30T11:20:00;22.8;99.9
49901;DHT22;35789;48.414;12.768;2022-08-30T11:25:03;22.7;99.9
49901;DHT22;35789;48.414;12.768;2022-08-30T11:30:08;22.9;99.9
49901;DHT22;35789;48.414;12.768;2022-08-30T11:35:00;22.8;99.9
49901;DHT22;35789;48.414;12.768;2022-08-30T11:40:00;22.9;99.9
49901;DHT22;35789;48.414;12.768;2022-08-30T11:50:02;23.0;97.7
49901;DHT22;35789;48.414;12.768;2022-08-30T12:00:04;23.1;99.9
49901;DHT22;35789;48.414;12.768;2022-08-30T12:05:00;23.3;96.7
49901;DHT22;35789;48.414;12.768;2022-08-30T12:10:00;23.3;98.1
49901;DHT22;35789;48.414;12.768;2022-08-30T12:15:00;23.3;96.9
49901;DHT22;35789;48.414;12.768;2022-08-30T12:20:00;23.4;95.5
49901;DHT22;35789;48.414;12.768;2022-08-30T12:25:00;23.3;96.0
49901;DHT22;35789;48.414;12.768;2022-08-30T12:30:01;23.8;95.2
49901;DHT22;35789;48.414;12.768;2022-08-30T12:35:01;23.4;96.0
49901;DHT22;35789;48.414;12.768;2022-08-30T12:40:01;23.4;96.1
49901;DHT22;35789;48.414;12.768;2022-08-30T12:45:01;23.4;95.0
49901;DHT22;35789;48.414;12.768;2022-08-30T12:50:00;23.5;95.7
49901;DHT22;35789;48.414;12.768;2022-08-30T12:55:05;23.7;93.9
49901;DHT22;35789;48.414;12.768;2022-08-30T13:00:00;23.5;94.1
49901;DHT22;35789;48.414;12.768;2022-08-30T13:05:25;23.2;97.5
49901;DHT22;35789;48.414;12.768;2022-08-30T13:10:08;23.4;95.9
49901;DHT22;35789;48.414;12.768;2022-08-30T13:15:08;23.4;95.8
49901;DHT22;35789;48.414;12.768;2022-08-30T13:20:01;23.7;94.9
49901;DHT22;35789;48.414;12.768;2022-08-30T13:25:00;23.3;97.1
49901;DHT22;35789;48.414;12.768;2022-08-30T13:30:05;23.4;95.2
49901;DHT22;35789;48.414;12.768;2022-08-30T13:35:00;23.4;95.9
49901;DHT22;35789;48.414;12.768;2022-08-30T13:40:00;23.4;95.9
49901;DHT22;35789;48.414;12.768;2022-08-30T13:45:00;23.2;95.7
49901;DHT22;35789;48.414;12.768;2022-08-30T13:50:00;23.4;93.2
49901;DHT22;35789;48.414;12.768;2022-08-30T13:55:00;23.4;94.7
49901;DHT22;35789;48.414;12.768;2022-08-30T14:00:00;23.4;93.7
49901;DHT22;35789;48.414;12.768;2022-08-30T14:05:00;23.4;93.3
49901;DHT22;35789;48.414;12.768;2022-08-30T14:10:00;23.3;93.5
49901;DHT22;35789;48.414;12.768;2022-08-30T14:15:00;23.3;94.7
49901;DHT22;35789;48.414;12.768;2022-08-30T14:20:00;23.4;92.0
49901;DHT22;35789;48.414;12.768;2022-08-30T14:25:00;23.3;93.2
49901;DHT22;35789;48.414;12.768;2022-08-30T14:30:00;23.3;94.3
49901;DHT22;35789;48.414;12.768;2022-08-30T14:35:00;23.1;93.1
49901;DHT22;35789;48.414;12.768;2022-08-30T14:40:00;22.9;94.7
49901;DHT22;35789;48.414;12.768;2022-08-30T14:45:00;22.8;93.2
49901;DHT22;35789;48.414;12.768;2022-08-30T14:50:00;22.7;92.7
49901;DHT22;35789;48.414;12.768;2022-08-30T14:55:00;22.9;92.8
49901;DHT22;35789;48.414;12.768;2022-08-30T15:00:00;22.6;93.6
49901;DHT22;35789;48.414;12.768;2022-08-30T15:05:00;22.6;95.8
49901;DHT22;35789;48.414;12.768;2022-08-30T15:10:00;22.8;92.7
49901;DHT22;35789;48.414;12.768;2022-08-30T15:15:00;22.9;92.8
49901;DHT22;35789;48.414;12.768;2022-08-30T15:20:00;22.7;94.5
49901;DHT22;35789;48.414;12.768;2022-08-30T15:25:00;22.7;93.8
49901;DHT22;35789;48.414;12.768;2022-08-30T15:30:00;22.4;94.4
49901;DHT22;35789;48.414;12.768;2022-08-30T15:35:00;22.2;95.1
49901;DHT22;35789;48.414;12.768;2022-08-30T15:40:00;22.1;95.2
49901;DHT22;35789;48.414;12.768;2022-08-30T15:45:00;22.0;96.2
49901;DHT22;35789;48.414;12.768;2022-08-30T15:50:01;22.0;96.3
49901;DHT22;35789;48.414;12.768;2022-08-30T15:55:00;22.1;94.6
49901;DHT22;35789;48.414;12.768;2022-08-30T16:00:00;22.1;95.8
49901;DHT22;35789;48.414;12.768;2022-08-30T16:05:00;22.0;96.8
49901;DHT22;35789;48.414;12.768;2022-08-30T16:10:00;22.0;96.8
49901;DHT22;35789;48.414;12.768;2022-08-30T16:15:00;21.9;95.9
49901;DHT22;35789;48.414;12.768;2022-08-30T16:20:00;21.9;98.0
49901;DHT22;35789;48.414;12.768;2022-08-30T16:25:01;21.9;97.4
49901;DHT22;35789;48.414;12.768;2022-08-30T16:30:00;21.9;98.3
49901;DHT22;35789;48.414;12.768;2022-08-30T16:35:00;21.9;97.2
49901;DHT22;35789;48.414;12.768;2022-08-30T16:40:00;22.0;97.1
49901;DHT22;35789;48.414;12.768;2022-08-30T16:45:00;22.0;98.5
49901;DHT22;35789;48.414;12.768;2022-08-30T16:50:00;21.9;98.8
49901;DHT22;35789;48.414;12.768;2022-08-30T16:55:00;21.8;98.4
49901;DHT22;35789;48.414;12.768;2022-08-30T17:00:00;21.8;98.4
49901;DHT22;35789;48.414;12.768;2022-08-30T17:05:00;21.7;97.2
49901;DHT22;35789;48.414;12.768;2022-08-30T17:10:00;21.6;97.7
49901;DHT22;35789;48.414;12.768;2022-08-30T17:15:00;21.5;99.4
49901;DHT22;35789;48.414;12.768;2022-08-30T17:20:00;21.4;98.9
49901;DHT22;35789;48.414;12.768;2022-08-30T17:25:00;21.2;99.9
49901;DHT22;35789;48.414;12.768;2022-08-30T17:30:00;21.0;99.9
49901;DHT22;35789;48.414;12.768;2022-08-30T17:35:00;20.9;99.9
49901;DHT22;35789;48.414;12.768;2022-08-30T17:40:00;20.8;99.9
49901;DHT22;35789;48.414;12.768;2022-08-30T17:45:01;20.6;99.9
49901;DHT22;35789;48.414;12.768;2022-08-30T17:50:00;20.4;99.9
49901;DHT22;35789;48.414;12.768;2022-08-30T17:55:00;20.3;99.9
49901;DHT22;35789;48.414;12.768;2022-08-30T18:00:00;20.2;99.9
49901;DHT22;35789;48.414;12.768;2022-08-30T18:05:00;20.1;99.9
49901;DHT22;35789;48.414;12.768;2022-08-30T18:10:00;19.9;99.9
49901;DHT22;35789;48.414;12.768;2022-08-30T18:15:00;19.8;99.9
49901;DHT22;35789;48.414;12.768;2022-08-30T18:20:00;19.7;99.9
49901;DHT22;35789;48.414;12.768;2022-08-30T18:25:00;19.6;99.9
49901;DHT22;35789;48.414;12.768;2022-08-30T18:30:02;19.5;99.9
49901;DHT22;35789;48.414;12.768;2022-08-30T18:35:00;19.4;99.9
49901;DHT22;35789;48.414;12.768;2022-08-30T18:40:00;19.3;99.9
49901;DHT22;35789;48.414;12.768;2022-08-30T18:45:00;19.2;99.9
49901;DHT22;35789;48.414;12.768;2022-08-30T18:50:00;19.1;99.9
49901;DHT22;35789;48.414;12.768;2022-08-30T18:55:00;18.9;99.9
49901;DHT22;35789;48.414;12.768;2022-08-30T19:00:00;18.8;99.9
49901;DHT22;35789;48.414;12.768;2022-08-30T19:05:00;18.7;99.9
49901;DHT22;35789;48.414;12.768;2022-08-30T19:10:00;18.6;99.9
49901;DHT22;35789;48.414;12.768;2022-08-30T19:15:00;18.5;99.9
49901;DHT22;35789;48.414;12.768;2022-08-30T19:20:00;18.6;99.9
49901;DHT22;35789;48.414;12.768;2022-08-30T19:25:00;18.5;99.9
49901;DHT22;35789;48.414;12.768;2022-08-30T19:30:00;18.4;99.9
49901;DHT22;35789;48.414;12.768;2022-08-30T19:35:00;18.5;99.9
49901;DHT22;35789;48.414;12.768;2022-08-30T19:40:00;18.5;99.9
49901;DHT22;35789;48.414;12.768;2022-08-30T19:45:00;18.4;99.9
49901;DHT22;35789;48.414;12.768;2022-08-30T19:50:00;18.2;99.9
49901;DHT22;35789;48.414;12.768;2022-08-30T19:55:00;18.1;99.9
49901;DHT22;35789;48.414;12.768;2022-08-30T20:00:00;18.1;99.9
49901;DHT22;35789;48.414;12.768;2022-08-30T20:05:00;18.1;99.9
49901;DHT22;35789;48.414;12.768;2022-08-30T20:10:00;18.1;99.9
49901;DHT22;35789;48.414;12.768;2022-08-30T20:15:00;18.1;99.9
49901;DHT22;35789;48.414;12.768;2022-08-30T20:20:00;18.1;99.9
49901;DHT22;35789;48.414;12.768;2022-08-30T20:25:00;18.0;99.9
49901;DHT22;35789;48.414;12.768;2022-08-30T20:30:00;18.0;99.9
49901;DHT22;35789;48.414;12.768;2022-08-30T20:35:00;17.9;99.9
49901;DHT22;35789;48.414;12.768;2022-08-30T20:40:00;17.9;99.9
49901;DHT22;35789;48.414;12.768;2022-08-30T20:45:00;17.8;99.9
49901;DHT22;35789;48.414;12.768;2022-08-30T20:50:00;17.8;99.9
49901;DHT22;35789;48.414;12.768;2022-08-30T20:55:00;17.7;99.9
49901;DHT22;35789;48.414;12.768;2022-08-30T21:00:00;17.7;99.9
49901;DHT22;35789;48.414;12.768;2022-08-30T21:05:00;17.6;99.9
49901;DHT22;35789;48.414;12.768;2022-08-30T21:10:00;17.7;99.9
49901;DHT22;35789;48.414;12.768;2022-08-30T21:15:00;17.5;99.9
49901;DHT22;35789;48.414;12.768;2022-08-30T21:20:00;17.5;99.9
49901;DHT22;35789;48.414;12.768;2022-08-30T21:25:00;17.4;99.9
49901;DHT22;35789;48.414;12.768;2022-08-30T21:30:00;17.3;99.9
49901;DHT22;35789;48.414;12.768;2022-08-30T21:35:00;17.3;99.9
49901;DHT22;35789;48.414;12.768;2022-08-30T21:40:00;17.2;99.9
49901;DHT22;35789;48.414;12.768;2022-08-30T21:45:00;17.1;99.9
49901;DHT22;35789;48.414;12.768;2022-08-30T21:50:00;17.1;99.9
49901;DHT22;35789;48.414;12.768;2022-08-30T21:55:00;17.0;99.9
49901;DHT22;35789;48.414;12.768;2022-08-30T22:00:00;17.0;99.9
49901;DHT22;35789;48.414;12.768;2022-08-30T22:05:00;17.0;99.9
49901;DHT22;35789;48.414;12.768;2022-08-30T22:10:00;16.9;99.9
49901;DHT22;35789;48.414;12.768;2022-08-30T22:15:00;16.8;99.9
49901;DHT22;35789;48.414;12.768;2022-08-30T22:20:01;16.7;99.9
49901;DHT22;35789;48.414;12.768;2022-08-30T22:25:00;16.7;99.9
49901;DHT22;35789;48.414;12.768;2022-08-30T22:30:00;16.7;99.9
49901;DHT22;35789;48.414;12.768;2022-08-30T22:35:00;16.7;99.9
49901;DHT22;35789;48.414;12.768;2022-08-30T22:40:00;16.6;99.9
49901;DHT22;35789;48.414;12.768;2022-08-30T22:45:00;16.6;99.9
49901;DHT22;35789;48.414;12.768;2022-08-30T22:50:00;16.5;99.9
49901;DHT22;35789;48.414;12.768;2022-08-30T22:55:00;16.5;99.9
49901;DHT22;35789;48.414;12.768;2022-08-30T23:00:00;16.4;99.9
49901;DHT22;35789;48.414;12.768;2022-08-30T23:05:00;16.4;99.9
49901;DHT22;35789;48.414;12.768;2022-08-30T23:10:00;16.4;99.9
49901;DHT22;35789;48.414;12.768;2022-08-30T23:15:00;16.4;99.9
49901;DHT22;35789;48.414;12.768;2022-08-30T23:20:00;16.3;99.9
49901;DHT22;35789;48.414;12.768;2022-08-30T23:25:00;16.4;99.9
49901;DHT22;35789;48.414;12.768;2022-08-30T23:30:00;16.3;99.9
49901;DHT22;35789;48.414;12.768;2022-08-30T23:35:00;16.2;99.9
49901;DHT22;35789;48.414;12.768;2022-08-30T23:40:00;16.3;99.9
49901;DHT22;35789;48.414;12.768;2022-08-30T23:45:00;16.3;99.9
49901;DHT22;35789;48.414;12.768;2022-08-30T23:50:00;16.3;99.9
49901;DHT22;35789;48.414;12.768;2022-08-30T23:55:00;16.2;99.9
